Carrick On Suir, Ireland
Current Conditions -  °F | °C
As of 12:00 PM on Monday 26 Jan 2015 (Local Time) from EIWF Reporting Station
Scattered Clouds Scattered Clouds  
Wind Chill: 41°   Ceiling: Unl
Heat Index: 46°   Visibility: 6mi
Dew Point: 39°   Wind: 12mph
Humidity: 76%   Direction: 320°NW
Pressure: 30.39"   Gusts: NA
Location:  52.35°N, 7.42°W
Report Text: EIWF 261200Z 32010KT 280V350 9999 SCT022 08/04 Q1029 R03/1/////
Loading
Personal Weather Stations






























Interactive Weather Map New forecast layout! Learn more

10-Day Weather Forecast

Advertisements
Track Severe Weather on mobile